sensor_id;sensor_type;location;lat;lon;timestamp;P1;durP1;ratioP1;P2;durP2;ratioP2
68284;SDS011;55114;52.052;5.238;2023-04-01T00:01:12;26.37;;;6.90;;
68284;SDS011;55114;52.052;5.238;2023-04-01T00:03:40;24.80;;;6.20;;
68284;SDS011;55114;52.052;5.238;2023-04-01T00:06:08;26.48;;;7.07;;
68284;SDS011;55114;52.052;5.238;2023-04-01T00:08:36;27.48;;;7.10;;
68284;SDS011;55114;52.052;5.238;2023-04-01T00:11:03;32.53;;;7.72;;
68284;SDS011;55114;52.052;5.238;2023-04-01T00:13:30;29.63;;;7.80;;
68284;SDS011;55114;52.052;5.238;2023-04-01T00:15:57;28.38;;;7.80;;
68284;SDS011;55114;52.052;5.238;2023-04-01T00:18:25;29.67;;;8.50;;
68284;SDS011;55114;52.052;5.238;2023-04-01T00:20:52;32.65;;;9.23;;
68284;SDS011;55114;52.052;5.238;2023-04-01T00:23:20;27.83;;;8.75;;
68284;SDS011;55114;52.052;5.238;2023-04-01T00:25:47;34.47;;;9.77;;
68284;SDS011;55114;52.052;5.238;2023-04-01T00:28:16;33.90;;;8.80;;
68284;SDS011;55114;52.052;5.238;2023-04-01T00:30:43;27.08;;;8.57;;
68284;SDS011;55114;52.052;5.238;2023-04-01T00:33:11;38.28;;;9.65;;
68284;SDS011;55114;52.052;5.238;2023-04-01T00:35:38;34.05;;;9.55;;
68284;SDS011;55114;52.052;5.238;2023-04-01T00:38:05;30.30;;;8.77;;
68284;SDS011;55114;52.052;5.238;2023-04-01T00:40:34;32.28;;;9.15;;
68284;SDS011;55114;52.052;5.238;2023-04-01T00:43:02;32.03;;;10.00;;
68284;SDS011;55114;52.052;5.238;2023-04-01T00:45:31;30.08;;;9.43;;
68284;SDS011;55114;52.052;5.238;2023-04-01T00:47:59;31.67;;;9.60;;
68284;SDS011;55114;52.052;5.238;2023-04-01T00:50:28;35.07;;;9.80;;
68284;SDS011;55114;52.052;5.238;2023-04-01T00:52:56;33.85;;;8.88;;
68284;SDS011;55114;52.052;5.238;2023-04-01T00:55:24;35.47;;;8.63;;
68284;SDS011;55114;52.052;5.238;2023-04-01T00:57:53;31.33;;;8.82;;
68284;SDS011;55114;52.052;5.238;2023-04-01T01:00:23;33.05;;;8.98;;
68284;SDS011;55114;52.052;5.238;2023-04-01T01:02:50;34.30;;;9.33;;
68284;SDS011;55114;52.052;5.238;2023-04-01T01:05:17;31.23;;;9.35;;
68284;SDS011;55114;52.052;5.238;2023-04-01T01:07:49;27.88;;;8.68;;
68284;SDS011;55114;52.052;5.238;2023-04-01T01:10:26;30.90;;;9.30;;
68284;SDS011;55114;52.052;5.238;2023-04-01T01:13:01;29.23;;;8.32;;
68284;SDS011;55114;52.052;5.238;2023-04-01T01:18:39;30.48;;;7.80;;
68284;SDS011;55114;52.052;5.238;2023-04-01T01:26:27;24.65;;;7.93;;
68284;SDS011;55114;52.052;5.238;2023-04-01T01:34:44;20.52;;;6.40;;
68284;SDS011;55114;52.052;5.238;2023-04-01T01:37:16;17.67;;;5.65;;
68284;SDS011;55114;52.052;5.238;2023-04-01T01:39:45;15.40;;;5.32;;
68284;SDS011;55114;52.052;5.238;2023-04-01T01:42:15;14.57;;;4.43;;
68284;SDS011;55114;52.052;5.238;2023-04-01T01:44:44;17.92;;;4.47;;
68284;SDS011;55114;52.052;5.238;2023-04-01T01:47:12;13.63;;;4.72;;
68284;SDS011;55114;52.052;5.238;2023-04-01T01:49:40;15.98;;;4.50;;
68284;SDS011;55114;52.052;5.238;2023-04-01T01:52:08;17.55;;;4.90;;
68284;SDS011;55114;52.052;5.238;2023-04-01T01:54:36;16.10;;;4.90;;
68284;SDS011;55114;52.052;5.238;2023-04-01T01:57:06;16.27;;;4.82;;
68284;SDS011;55114;52.052;5.238;2023-04-01T01:59:35;16.58;;;4.63;;
68284;SDS011;55114;52.052;5.238;2023-04-01T02:02:03;14.85;;;4.70;;
68284;SDS011;55114;52.052;5.238;2023-04-01T02:04:34;15.75;;;4.30;;
68284;SDS011;55114;52.052;5.238;2023-04-01T02:07:03;12.17;;;4.20;;
68284;SDS011;55114;52.052;5.238;2023-04-01T02:09:31;12.85;;;3.88;;
68284;SDS011;55114;52.052;5.238;2023-04-01T02:12:09;13.10;;;4.40;;
68284;SDS011;55114;52.052;5.238;2023-04-01T02:17:07;14.90;;;4.57;;
68284;SDS011;55114;52.052;5.238;2023-04-01T02:19:55;12.30;;;3.87;;
68284;SDS011;55114;52.052;5.238;2023-04-01T02:22:35;13.35;;;4.30;;
68284;SDS011;55114;52.052;5.238;2023-04-01T02:25:08;15.02;;;4.95;;
68284;SDS011;55114;52.052;5.238;2023-04-01T02:27:35;14.23;;;4.70;;
68284;SDS011;55114;52.052;5.238;2023-04-01T02:30:02;18.52;;;5.45;;
68284;SDS011;55114;52.052;5.238;2023-04-01T02:32:30;12.30;;;4.63;;
68284;SDS011;55114;52.052;5.238;2023-04-01T02:34:58;19.67;;;5.40;;
68284;SDS011;55114;52.052;5.238;2023-04-01T02:37:29;17.77;;;5.50;;
68284;SDS011;55114;52.052;5.238;2023-04-01T02:40:00;18.05;;;5.35;;
68284;SDS011;55114;52.052;5.238;2023-04-01T02:42:27;17.33;;;5.43;;
68284;SDS011;55114;52.052;5.238;2023-04-01T02:44:54;15.83;;;5.53;;
68284;SDS011;55114;52.052;5.238;2023-04-01T02:47:21;15.43;;;5.40;;
68284;SDS011;55114;52.052;5.238;2023-04-01T02:49:49;19.73;;;5.57;;
68284;SDS011;55114;52.052;5.238;2023-04-01T02:52:16;19.40;;;5.18;;
68284;SDS011;55114;52.052;5.238;2023-04-01T02:54:43;16.80;;;5.13;;
68284;SDS011;55114;52.052;5.238;2023-04-01T02:57:10;13.73;;;4.83;;
68284;SDS011;55114;52.052;5.238;2023-04-01T02:59:37;14.82;;;4.85;;
68284;SDS011;55114;52.052;5.238;2023-04-01T03:02:04;13.80;;;4.93;;
68284;SDS011;55114;52.052;5.238;2023-04-01T03:04:32;14.43;;;4.70;;
68284;SDS011;55114;52.052;5.238;2023-04-01T03:07:00;11.45;;;4.47;;
68284;SDS011;55114;52.052;5.238;2023-04-01T03:09:27;14.50;;;4.40;;
68284;SDS011;55114;52.052;5.238;2023-04-01T03:11:54;12.25;;;4.22;;
68284;SDS011;55114;52.052;5.238;2023-04-01T03:14:22;15.30;;;4.65;;
68284;SDS011;55114;52.052;5.238;2023-04-01T03:16:49;14.60;;;4.78;;
68284;SDS011;55114;52.052;5.238;2023-04-01T03:19:16;16.00;;;5.30;;
68284;SDS011;55114;52.052;5.238;2023-04-01T03:21:43;16.60;;;5.70;;
68284;SDS011;55114;52.052;5.238;2023-04-01T03:24:10;19.83;;;5.35;;
68284;SDS011;55114;52.052;5.238;2023-04-01T03:26:38;16.17;;;5.47;;
68284;SDS011;55114;52.052;5.238;2023-04-01T03:29:05;14.27;;;5.25;;
68284;SDS011;55114;52.052;5.238;2023-04-01T03:31:32;16.98;;;5.80;;
68284;SDS011;55114;52.052;5.238;2023-04-01T03:34:00;14.83;;;4.83;;
68284;SDS011;55114;52.052;5.238;2023-04-01T03:36:27;18.35;;;5.13;;
68284;SDS011;55114;52.052;5.238;2023-04-01T03:38:55;16.73;;;4.82;;
68284;SDS011;55114;52.052;5.238;2023-04-01T03:41:22;16.88;;;5.22;;
68284;SDS011;55114;52.052;5.238;2023-04-01T03:43:49;15.63;;;5.10;;
68284;SDS011;55114;52.052;5.238;2023-04-01T03:46:17;16.80;;;4.77;;
68284;SDS011;55114;52.052;5.238;2023-04-01T03:48:44;17.30;;;4.88;;
68284;SDS011;55114;52.052;5.238;2023-04-01T03:51:12;14.10;;;4.90;;
68284;SDS011;55114;52.052;5.238;2023-04-01T03:53:39;18.63;;;5.20;;
68284;SDS011;55114;52.052;5.238;2023-04-01T03:56:06;17.65;;;5.00;;
68284;SDS011;55114;52.052;5.238;2023-04-01T03:58:34;17.37;;;4.70;;
68284;SDS011;55114;52.052;5.238;2023-04-01T04:01:01;18.52;;;5.05;;
68284;SDS011;55114;52.052;5.238;2023-04-01T04:03:28;22.10;;;5.40;;
68284;SDS011;55114;52.052;5.238;2023-04-01T04:05:56;18.63;;;5.32;;
68284;SDS011;55114;52.052;5.238;2023-04-01T04:08:23;18.63;;;5.45;;
68284;SDS011;55114;52.052;5.238;2023-04-01T04:10:54;18.80;;;5.50;;
68284;SDS011;55114;52.052;5.238;2023-04-01T04:13:21;17.35;;;5.20;;
68284;SDS011;55114;52.052;5.238;2023-04-01T04:15:49;16.48;;;5.00;;
68284;SDS011;55114;52.052;5.238;2023-04-01T04:18:16;16.33;;;4.97;;
68284;SDS011;55114;52.052;5.238;2023-04-01T04:20:44;17.35;;;5.35;;
68284;SDS011;55114;52.052;5.238;2023-04-01T04:23:13;19.67;;;5.07;;
68284;SDS011;55114;52.052;5.238;2023-04-01T04:25:40;16.15;;;5.43;;
68284;SDS011;55114;52.052;5.238;2023-04-01T04:28:07;20.95;;;5.28;;
68284;SDS011;55114;52.052;5.238;2023-04-01T04:30:34;16.00;;;5.20;;
68284;SDS011;55114;52.052;5.238;2023-04-01T04:33:02;16.20;;;4.90;;
68284;SDS011;55114;52.052;5.238;2023-04-01T04:35:29;19.87;;;4.90;;
68284;SDS011;55114;52.052;5.238;2023-04-01T04:37:57;15.55;;;4.60;;
68284;SDS011;55114;52.052;5.238;2023-04-01T04:40:24;20.00;;;5.07;;
68284;SDS011;55114;52.052;5.238;2023-04-01T04:42:51;19.15;;;5.15;;
68284;SDS011;55114;52.052;5.238;2023-04-01T04:45:18;17.05;;;4.28;;
68284;SDS011;55114;52.052;5.238;2023-04-01T04:47:46;11.60;;;3.63;;
68284;SDS011;55114;52.052;5.238;2023-04-01T04:50:13;13.63;;;3.70;;
68284;SDS011;55114;52.052;5.238;2023-04-01T04:52:40;14.95;;;3.60;;
68284;SDS011;55114;52.052;5.238;2023-04-01T04:55:07;14.65;;;3.95;;
68284;SDS011;55114;52.052;5.238;2023-04-01T04:57:35;14.15;;;3.75;;
68284;SDS011;55114;52.052;5.238;2023-04-01T05:00:03;13.10;;;3.47;;
68284;SDS011;55114;52.052;5.238;2023-04-01T05:02:30;13.73;;;3.60;;
68284;SDS011;55114;52.052;5.238;2023-04-01T05:04:57;13.65;;;3.97;;
68284;SDS011;55114;52.052;5.238;2023-04-01T05:07:25;12.25;;;3.40;;
68284;SDS011;55114;52.052;5.238;2023-04-01T05:09:52;14.57;;;4.00;;
68284;SDS011;55114;52.052;5.238;2023-04-01T05:12:19;14.20;;;4.20;;
68284;SDS011;55114;52.052;5.238;2023-04-01T05:14:46;13.27;;;4.13;;
68284;SDS011;55114;52.052;5.238;2023-04-01T05:17:13;13.63;;;4.20;;
68284;SDS011;55114;52.052;5.238;2023-04-01T05:19:40;13.20;;;4.30;;
68284;SDS011;55114;52.052;5.238;2023-04-01T05:22:08;15.57;;;4.72;;
68284;SDS011;55114;52.052;5.238;2023-04-01T05:24:35;13.43;;;4.43;;
68284;SDS011;55114;52.052;5.238;2023-04-01T05:27:02;13.13;;;4.20;;
68284;SDS011;55114;52.052;5.238;2023-04-01T05:29:29;14.35;;;4.25;;
68284;SDS011;55114;52.052;5.238;2023-04-01T05:31:57;16.85;;;4.88;;
68284;SDS011;55114;52.052;5.238;2023-04-01T05:34:24;15.82;;;4.93;;
68284;SDS011;55114;52.052;5.238;2023-04-01T05:36:51;17.07;;;4.87;;
68284;SDS011;55114;52.052;5.238;2023-04-01T05:39:18;14.70;;;4.97;;
68284;SDS011;55114;52.052;5.238;2023-04-01T05:41:45;16.63;;;5.32;;
68284;SDS011;55114;52.052;5.238;2023-04-01T05:44:12;14.73;;;5.05;;
68284;SDS011;55114;52.052;5.238;2023-04-01T05:46:40;15.63;;;5.07;;
68284;SDS011;55114;52.052;5.238;2023-04-01T05:49:07;16.53;;;5.10;;
68284;SDS011;55114;52.052;5.238;2023-04-01T05:51:34;18.55;;;5.22;;
68284;SDS011;55114;52.052;5.238;2023-04-01T05:54:03;17.73;;;5.65;;
68284;SDS011;55114;52.052;5.238;2023-04-01T05:56:30;17.60;;;5.13;;
68284;SDS011;55114;52.052;5.238;2023-04-01T05:58:58;19.80;;;7.18;;
68284;SDS011;55114;52.052;5.238;2023-04-01T06:01:25;23.47;;;6.93;;
68284;SDS011;55114;52.052;5.238;2023-04-01T06:03:52;18.20;;;5.78;;
68284;SDS011;55114;52.052;5.238;2023-04-01T06:06:23;17.10;;;5.75;;
68284;SDS011;55114;52.052;5.238;2023-04-01T06:08:51;18.60;;;6.38;;
68284;SDS011;55114;52.052;5.238;2023-04-01T06:14:30;18.30;;;5.67;;
68284;SDS011;55114;52.052;5.238;2023-04-01T06:21:54;16.45;;;5.30;;
68284;SDS011;55114;52.052;5.238;2023-04-01T06:32:14;18.88;;;6.15;;
68284;SDS011;55114;52.052;5.238;2023-04-01T06:35:19;16.95;;;5.32;;
68284;SDS011;55114;52.052;5.238;2023-04-01T06:37:46;16.23;;;5.00;;
68284;SDS011;55114;52.052;5.238;2023-04-01T06:50:25;16.88;;;5.53;;
68284;SDS011;55114;52.052;5.238;2023-04-01T06:53:18;15.37;;;5.10;;
68284;SDS011;55114;52.052;5.238;2023-04-01T06:58:13;15.00;;;4.97;;
68284;SDS011;55114;52.052;5.238;2023-04-01T07:00:44;12.85;;;4.40;;
68284;SDS011;55114;52.052;5.238;2023-04-01T07:03:18;14.77;;;5.40;;
68284;SDS011;55114;52.052;5.238;2023-04-01T07:05:47;14.30;;;4.90;;
68284;SDS011;55114;52.052;5.238;2023-04-01T07:08:17;15.88;;;4.32;;
68284;SDS011;55114;52.052;5.238;2023-04-01T07:13:18;13.38;;;4.88;;
68284;SDS011;55114;52.052;5.238;2023-04-01T07:18:41;17.83;;;5.27;;
68284;SDS011;55114;52.052;5.238;2023-04-01T07:21:10;16.50;;;5.20;;
68284;SDS011;55114;52.052;5.238;2023-04-01T07:23:42;18.52;;;5.63;;
68284;SDS011;55114;52.052;5.238;2023-04-01T07:26:29;19.67;;;5.75;;
68284;SDS011;55114;52.052;5.238;2023-04-01T07:28:57;18.48;;;5.70;;
68284;SDS011;55114;52.052;5.238;2023-04-01T07:31:34;22.67;;;7.60;;
68284;SDS011;55114;52.052;5.238;2023-04-01T07:49:21;15.13;;;5.50;;
68284;SDS011;55114;52.052;5.238;2023-04-01T07:51:56;19.35;;;5.40;;
68284;SDS011;55114;52.052;5.238;2023-04-01T07:54:32;15.10;;;5.40;;
68284;SDS011;55114;52.052;5.238;2023-04-01T07:57:09;14.77;;;5.00;;
68284;SDS011;55114;52.052;5.238;2023-04-01T08:07:17;13.77;;;4.82;;
68284;SDS011;55114;52.052;5.238;2023-04-01T08:22:51;15.97;;;4.80;;
68284;SDS011;55114;52.052;5.238;2023-04-01T08:25:25;13.82;;;5.05;;
68284;SDS011;55114;52.052;5.238;2023-04-01T08:28:15;16.60;;;4.95;;
68284;SDS011;55114;52.052;5.238;2023-04-01T08:30:46;17.25;;;5.38;;
68284;SDS011;55114;52.052;5.238;2023-04-01T08:35:45;14.97;;;5.43;;
68284;SDS011;55114;52.052;5.238;2023-04-01T08:38:16;12.85;;;4.90;;
68284;SDS011;55114;52.052;5.238;2023-04-01T08:48:57;17.47;;;5.37;;
68284;SDS011;55114;52.052;5.238;2023-04-01T08:52:15;17.65;;;5.82;;
68284;SDS011;55114;52.052;5.238;2023-04-01T08:57:13;18.48;;;6.35;;
68284;SDS011;55114;52.052;5.238;2023-04-01T09:10:23;19.02;;;6.50;;
68284;SDS011;55114;52.052;5.238;2023-04-01T09:18:34;20.95;;;6.38;;
68284;SDS011;55114;52.052;5.238;2023-04-01T09:21:09;21.40;;;6.50;;
68284;SDS011;55114;52.052;5.238;2023-04-01T09:29:15;17.90;;;6.20;;
68284;SDS011;55114;52.052;5.238;2023-04-01T09:31:48;17.60;;;6.03;;
68284;SDS011;55114;52.052;5.238;2023-04-01T09:34:26;20.88;;;6.38;;
68284;SDS011;55114;52.052;5.238;2023-04-01T09:39:35;16.25;;;5.70;;
68284;SDS011;55114;52.052;5.238;2023-04-01T09:44:58;19.27;;;6.10;;
68284;SDS011;55114;52.052;5.238;2023-04-01T09:50:14;17.25;;;6.45;;
68284;SDS011;55114;52.052;5.238;2023-04-01T10:01:19;14.52;;;4.45;;
68284;SDS011;55114;52.052;5.238;2023-04-01T10:09:00;11.40;;;4.23;;
68284;SDS011;55114;52.052;5.238;2023-04-01T10:19:34;13.02;;;5.25;;
68284;SDS011;55114;52.052;5.238;2023-04-01T10:30:14;9.25;;;4.05;;
68284;SDS011;55114;52.052;5.238;2023-04-01T10:46:38;6.82;;;2.60;;
68284;SDS011;55114;52.052;5.238;2023-04-01T10:59:53;8.02;;;2.85;;
68284;SDS011;55114;52.052;5.238;2023-04-01T11:26:48;7.50;;;3.40;;
68284;SDS011;55114;52.052;5.238;2023-04-01T11:34:39;7.72;;;3.00;;
68284;SDS011;55114;52.052;5.238;2023-04-01T11:45:37;6.85;;;2.88;;
68284;SDS011;55114;52.052;5.238;2023-04-01T11:48:22;8.02;;;3.20;;
68284;SDS011;55114;52.052;5.238;2023-04-01T11:56:07;5.07;;;2.13;;
68284;SDS011;55114;52.052;5.238;2023-04-01T11:58:40;6.93;;;2.40;;
68284;SDS011;55114;52.052;5.238;2023-04-01T12:01:17;5.03;;;2.40;;
68284;SDS011;55114;52.052;5.238;2023-04-01T12:12:36;4.93;;;2.10;;
68284;SDS011;55114;52.052;5.238;2023-04-01T12:25:40;7.65;;;2.60;;
68284;SDS011;55114;52.052;5.238;2023-04-01T12:41:11;9.55;;;4.10;;
68284;SDS011;55114;52.052;5.238;2023-04-01T12:49:01;7.97;;;3.50;;
68284;SDS011;55114;52.052;5.238;2023-04-01T12:51:37;8.60;;;3.70;;
68284;SDS011;55114;52.052;5.238;2023-04-01T12:54:21;9.73;;;4.60;;
68284;SDS011;55114;52.052;5.238;2023-04-01T13:00:03;7.22;;;3.42;;
68284;SDS011;55114;52.052;5.238;2023-04-01T13:17:34;10.98;;;4.70;;
68284;SDS011;55114;52.052;5.238;2023-04-01T13:22:45;13.63;;;5.78;;
68284;SDS011;55114;52.052;5.238;2023-04-01T13:27:58;12.60;;;5.90;;
68284;SDS011;55114;52.052;5.238;2023-04-01T13:30:31;11.40;;;5.47;;
68284;SDS011;55114;52.052;5.238;2023-04-01T13:43:42;7.80;;;4.20;;
68284;SDS011;55114;52.052;5.238;2023-04-01T13:54:22;7.93;;;2.70;;
68284;SDS011;55114;52.052;5.238;2023-04-01T14:04:45;6.25;;;3.25;;
68284;SDS011;55114;52.052;5.238;2023-04-01T14:17:37;6.07;;;3.05;;
68284;SDS011;55114;52.052;5.238;2023-04-01T14:20:17;7.63;;;3.37;;
68284;SDS011;55114;52.052;5.238;2023-04-01T14:22:56;7.30;;;2.63;;
68284;SDS011;55114;52.052;5.238;2023-04-01T14:38:58;6.63;;;2.90;;
68284;SDS011;55114;52.052;5.238;2023-04-01T14:41:35;7.40;;;2.72;;
68284;SDS011;55114;52.052;5.238;2023-04-01T14:49:22;7.60;;;3.33;;
68284;SDS011;55114;52.052;5.238;2023-04-01T14:51:51;8.48;;;3.53;;
68284;SDS011;55114;52.052;5.238;2023-04-01T14:54:32;9.52;;;3.92;;
68284;SDS011;55114;52.052;5.238;2023-04-01T14:57:10;9.10;;;3.80;;
68284;SDS011;55114;52.052;5.238;2023-04-01T15:05:25;9.93;;;4.20;;
68284;SDS011;55114;52.052;5.238;2023-04-01T15:08:01;11.00;;;4.05;;
68284;SDS011;55114;52.052;5.238;2023-04-01T15:14:01;10.17;;;4.00;;
68284;SDS011;55114;52.052;5.238;2023-04-01T15:24:15;7.10;;;3.28;;
68284;SDS011;55114;52.052;5.238;2023-04-01T15:26:51;7.77;;;3.60;;
68284;SDS011;55114;52.052;5.238;2023-04-01T15:34:46;6.43;;;3.00;;
68284;SDS011;55114;52.052;5.238;2023-04-01T15:37:19;6.63;;;2.92;;
68284;SDS011;55114;52.052;5.238;2023-04-01T15:48:06;7.40;;;3.10;;
68284;SDS011;55114;52.052;5.238;2023-04-01T15:50:44;7.15;;;3.03;;
68284;SDS011;55114;52.052;5.238;2023-04-01T15:53:59;6.37;;;2.50;;
68284;SDS011;55114;52.052;5.238;2023-04-01T16:12:22;15.50;;;7.10;;
68284;SDS011;55114;52.052;5.238;2023-04-01T16:22:39;10.82;;;6.50;;
68284;SDS011;55114;52.052;5.238;2023-04-01T16:27:40;9.05;;;4.75;;
68284;SDS011;55114;52.052;5.238;2023-04-01T16:40:57;8.63;;;5.47;;
68284;SDS011;55114;52.052;5.238;2023-04-01T16:43:30;8.10;;;5.25;;
68284;SDS011;55114;52.052;5.238;2023-04-01T16:48:44;7.82;;;4.65;;
68284;SDS011;55114;52.052;5.238;2023-04-01T16:51:13;6.82;;;3.28;;
68284;SDS011;55114;52.052;5.238;2023-04-01T16:53:46;12.10;;;6.72;;
68284;SDS011;55114;52.052;5.238;2023-04-01T16:56:24;5.47;;;2.80;;
68284;SDS011;55114;52.052;5.238;2023-04-01T17:01:48;4.53;;;2.03;;
68284;SDS011;55114;52.052;5.238;2023-04-01T17:04:19;9.35;;;3.28;;
68284;SDS011;55114;52.052;5.238;2023-04-01T17:06:49;5.32;;;2.40;;
68284;SDS011;55114;52.052;5.238;2023-04-01T17:09:22;6.93;;;3.55;;
68284;SDS011;55114;52.052;5.238;2023-04-01T17:14:29;9.43;;;6.15;;
68284;SDS011;55114;52.052;5.238;2023-04-01T17:17:13;8.27;;;4.43;;
68284;SDS011;55114;52.052;5.238;2023-04-01T17:19:48;6.55;;;3.10;;
68284;SDS011;55114;52.052;5.238;2023-04-01T17:22:21;6.63;;;3.10;;
68284;SDS011;55114;52.052;5.238;2023-04-01T17:25:32;6.87;;;3.67;;
68284;SDS011;55114;52.052;5.238;2023-04-01T17:32:59;11.15;;;6.65;;
68284;SDS011;55114;52.052;5.238;2023-04-01T17:35:31;12.18;;;7.47;;
68284;SDS011;55114;52.052;5.238;2023-04-01T17:38:09;14.53;;;8.40;;
68284;SDS011;55114;52.052;5.238;2023-04-01T17:41:25;9.93;;;4.85;;
68284;SDS011;55114;52.052;5.238;2023-04-01T17:43:36;17.30;;;11.38;;
68284;SDS011;55114;52.052;5.238;2023-04-01T17:51:19;9.63;;;5.53;;
68284;SDS011;55114;52.052;5.238;2023-04-01T18:04:25;13.53;;;9.40;;
68284;SDS011;55114;52.052;5.238;2023-04-01T18:12:12;8.20;;;3.50;;
68284;SDS011;55114;52.052;5.238;2023-04-01T18:17:40;7.93;;;4.00;;
68284;SDS011;55114;52.052;5.238;2023-04-01T18:20:18;8.25;;;4.80;;
68284;SDS011;55114;52.052;5.238;2023-04-01T18:22:48;6.78;;;3.80;;
68284;SDS011;55114;52.052;5.238;2023-04-01T18:25:39;6.82;;;3.47;;
68284;SDS011;55114;52.052;5.238;2023-04-01T18:28:16;7.93;;;3.40;;
68284;SDS011;55114;52.052;5.238;2023-04-01T18:30:55;7.20;;;3.30;;
68284;SDS011;55114;52.052;5.238;2023-04-01T18:38:33;7.53;;;3.70;;
68284;SDS011;55114;52.052;5.238;2023-04-01T18:46:25;9.68;;;3.92;;
68284;SDS011;55114;52.052;5.238;2023-04-01T18:54:17;12.15;;;7.53;;
68284;SDS011;55114;52.052;5.238;2023-04-01T18:56:48;11.97;;;5.97;;
68284;SDS011;55114;52.052;5.238;2023-04-01T19:04:24;9.43;;;4.93;;
68284;SDS011;55114;52.052;5.238;2023-04-01T19:06:55;9.00;;;4.78;;
68284;SDS011;55114;52.052;5.238;2023-04-01T19:14:36;9.13;;;4.40;;
68284;SDS011;55114;52.052;5.238;2023-04-01T19:19:55;10.10;;;4.38;;
68284;SDS011;55114;52.052;5.238;2023-04-01T19:27:48;7.53;;;4.03;;
68284;SDS011;55114;52.052;5.238;2023-04-01T19:33:06;13.63;;;7.93;;
68284;SDS011;55114;52.052;5.238;2023-04-01T19:43:14;27.05;;;14.32;;
68284;SDS011;55114;52.052;5.238;2023-04-01T19:45:52;14.40;;;7.78;;
68284;SDS011;55114;52.052;5.238;2023-04-01T19:51:20;30.83;;;18.17;;
68284;SDS011;55114;52.052;5.238;2023-04-01T19:56:27;12.75;;;7.10;;
68284;SDS011;55114;52.052;5.238;2023-04-01T19:59:00;12.82;;;7.32;;
68284;SDS011;55114;52.052;5.238;2023-04-01T20:01:38;10.57;;;5.90;;
68284;SDS011;55114;52.052;5.238;2023-04-01T20:04:11;11.95;;;5.78;;
68284;SDS011;55114;52.052;5.238;2023-04-01T20:09:14;20.40;;;11.75;;
68284;SDS011;55114;52.052;5.238;2023-04-01T20:19:36;15.88;;;9.23;;
68284;SDS011;55114;52.052;5.238;2023-04-01T20:22:53;14.00;;;6.82;;
68284;SDS011;55114;52.052;5.238;2023-04-01T20:24:58;16.35;;;7.72;;
68284;SDS011;55114;52.052;5.238;2023-04-01T20:27:27;28.70;;;13.83;;
68284;SDS011;55114;52.052;5.238;2023-04-01T20:35:14;12.35;;;6.13;;
68284;SDS011;55114;52.052;5.238;2023-04-01T20:37:52;10.70;;;5.70;;
68284;SDS011;55114;52.052;5.238;2023-04-01T20:40:41;11.13;;;6.00;;
68284;SDS011;55114;52.052;5.238;2023-04-01T20:51:06;12.30;;;5.95;;
68284;SDS011;55114;52.052;5.238;2023-04-01T20:58:48;13.38;;;6.07;;
68284;SDS011;55114;52.052;5.238;2023-04-01T21:04:03;13.32;;;5.93;;
68284;SDS011;55114;52.052;5.238;2023-04-01T21:16:58;11.25;;;5.30;;
68284;SDS011;55114;52.052;5.238;2023-04-01T21:22:04;10.50;;;5.15;;
68284;SDS011;55114;52.052;5.238;2023-04-01T21:27:22;10.65;;;4.50;;
68284;SDS011;55114;52.052;5.238;2023-04-01T21:43:12;12.30;;;4.55;;
68284;SDS011;55114;52.052;5.238;2023-04-01T22:07:16;12.40;;;5.13;;
68284;SDS011;55114;52.052;5.238;2023-04-01T22:17:32;10.82;;;4.35;;
68284;SDS011;55114;52.052;5.238;2023-04-01T22:20:16;11.38;;;4.80;;
68284;SDS011;55114;52.052;5.238;2023-04-01T22:25:21;11.50;;;4.93;;
68284;SDS011;55114;52.052;5.238;2023-04-01T22:27:53;10.77;;;4.88;;
68284;SDS011;55114;52.052;5.238;2023-04-01T22:33:40;10.80;;;5.28;;
68284;SDS011;55114;52.052;5.238;2023-04-01T22:38:27;11.20;;;4.97;;
68284;SDS011;55114;52.052;5.238;2023-04-01T22:41:02;10.68;;;4.78;;
68284;SDS011;55114;52.052;5.238;2023-04-01T22:43:39;10.55;;;4.88;;
68284;SDS011;55114;52.052;5.238;2023-04-01T22:46:16;10.00;;;4.70;;
68284;SDS011;55114;52.052;5.238;2023-04-01T22:54:31;12.43;;;5.20;;
68284;SDS011;55114;52.052;5.238;2023-04-01T22:57:05;10.18;;;4.90;;
68284;SDS011;55114;52.052;5.238;2023-04-01T22:59:37;11.65;;;4.88;;
68284;SDS011;55114;52.052;5.238;2023-04-01T23:03:00;11.60;;;5.68;;
68284;SDS011;55114;52.052;5.238;2023-04-01T23:04:59;13.57;;;5.40;;
68284;SDS011;55114;52.052;5.238;2023-04-01T23:09:55;13.00;;;6.00;;
68284;SDS011;55114;52.052;5.238;2023-04-01T23:12:23;12.93;;;5.68;;
68284;SDS011;55114;52.052;5.238;2023-04-01T23:14:52;16.02;;;6.00;;
68284;SDS011;55114;52.052;5.238;2023-04-01T23:22:25;15.40;;;6.85;;
68284;SDS011;55114;52.052;5.238;2023-04-01T23:24:59;14.30;;;6.57;;
68284;SDS011;55114;52.052;5.238;2023-04-01T23:27:36;16.45;;;7.10;;
68284;SDS011;55114;52.052;5.238;2023-04-01T23:30:51;17.13;;;6.23;;
68284;SDS011;55114;52.052;5.238;2023-04-01T23:32:53;15.68;;;6.82;;
68284;SDS011;55114;52.052;5.238;2023-04-01T23:35:20;15.13;;;7.18;;
68284;SDS011;55114;52.052;5.238;2023-04-01T23:37:47;15.88;;;7.18;;
68284;SDS011;55114;52.052;5.238;2023-04-01T23:40:14;15.90;;;6.93;;
68284;SDS011;55114;52.052;5.238;2023-04-01T23:42:41;16.17;;;7.30;;
68284;SDS011;55114;52.052;5.238;2023-04-01T23:45:13;14.40;;;6.60;;
68284;SDS011;55114;52.052;5.238;2023-04-01T23:47:44;16.58;;;6.97;;
68284;SDS011;55114;52.052;5.238;2023-04-01T23:50:20;14.48;;;6.63;;
68284;SDS011;55114;52.052;5.238;2023-04-01T23:52:48;15.70;;;6.80;;
68284;SDS011;55114;52.052;5.238;2023-04-01T23:55:18;14.33;;;7.03;;
